Terminal Aerodrome Forecast
Issued by NWS

Home | Current Version | Previous Version | Text Only | Print | Product List | Glossary On
Versions: 1 2 3 4 5 6 7 8 9 10 11 12 13 14 15
000
FTUS45 KVEF 201700
TAFHND
TAF
KHND 201725Z 2018/2118 18007KT P6SM FEW100 SCT150 BKN200
     FM201900 02005KT P6SM FEW100 SCT150 BKN200
     FM210200 17007KT P6SM FEW100 SCT150 BKN200
     FM211700 VRB05KT P6SM BKN250=

USA.gov is the U.S. government's official web portal to all federal, state and local government web resources and services.